Flight Track Log - Related Links

Times and Time Zones

All times are in EDT time to prevent confusion due to time zone crossing. See the SWA167 flight status page for this flight to view local times or setup timezone preferences in your user account.

Time Position Orientation Groundspeed Altitude Reporting Facility
EDT Latitude Longitude Course Direction KTS MPH feet Rate Location/Type
Mon 05:20:04 PM 32.8500 -96.8667 301° West 153 176 1,500  Level Dallas TRACON
Mon 05:22:04 PM 32.9000 -96.9667 301° West 228 262 6,500 2,323 Climbing Dallas TRACON
Mon 05:23:10 PM 32.8333 -97.0000 203° Southwest 299 344 8,700 2,265 Climbing Dallas TRACON
Mon 05:25:28 PM 32.6242 -97.0558 193° South 339 390 14,200 2,485 Climbing Fort Center
Mon 05:26:28 PM 32.5261 -97.0758 190° South 356 410 16,900 2,600 Climbing Fort Center
Mon 05:27:28 PM 32.4217 -97.0983 190° South 368 423 19,400 2,300 Climbing Fort Center
Mon 05:28:28 PM 32.3175 -97.1233 191° South 374 430 21,500 2,150 Climbing Fort Center
Mon 05:29:28 PM 32.2089 -97.1481 191° South 393 452 23,700 2,200 Climbing Fort Center
Mon 05:30:28 PM 32.0983 -97.1706 190° South 400 460 25,900 1,850 Climbing Fort Center
Mon 05:31:28 PM 31.9856 -97.1978 192° South 410 472 27,400 1,459 Climbing Fort Center
Mon 05:33:33 PM 31.7514 -97.2492 191° South 429 494 30,400 1,540 Climbing Houston Center
Mon 05:34:35 PM 31.6361 -97.2814 193° South 423 487 32,200 1,452 Climbing Houston Center
Mon 05:36:39 PM 31.4233 -97.3825 202° Southwest 410 472 34,900 919 Climbing Houston Center
Mon 05:38:00 PM 31.2923 -97.4301 197° South  Level FlightAware
Mon 05:38:43 PM 31.1978 -97.4883 197° South 395 455 36,000  Level Houston Center
Mon 05:40:00 PM 31.0707 -97.5391 201° Southwest  Level FlightAware
Mon 05:40:47 PM 30.9956 -97.5819 201° Southwest 390 449 36,000  Level Houston Center
Mon 05:41:49 PM 30.8950 -97.6294 202° Southwest 388 447 36,000  Level Houston Center
Mon 05:42:52 PM 30.7789 -97.6822 201° Southwest 384 442 36,000  Level Houston Center
Mon 05:43:54 PM 30.6778 -97.7272 201° Southwest 385 443 36,000  Level Houston Center
Mon 05:44:56 PM 30.5617 -97.7242 179° South 418 481 36,000  Level Houston Center
Mon 05:45:58 PM 30.4453 -97.7114 175° South 416 479 36,000  Level Houston Center
Mon 05:47:00 PM 30.3281 -97.6983 175° South 419 482 36,000  Level Houston Center
Mon 05:48:02 PM 30.2092 -97.6856 175° South 423 487 36,000  Level Houston Center
Mon 05:50:00 PM 30.0164 -97.6467 170° South  Level FlightAware
Mon 05:51:08 PM 29.8342 -97.6456 170° South 421 484 36,000  Level Houston Center
Mon 05:52:11 PM 29.7114 -97.6325 175° South 420 483 36,000  Level Houston Center
Mon 05:53:13 PM 29.5950 -97.6206 175° South 421 484 36,000  Level Houston Center
Mon 05:55:17 PM 29.3622 -97.5958 175° South 419 482 36,000  Level Houston Center
Mon 05:56:19 PM 29.2447 -97.5836 175° South 424 488 36,000  Level Houston Center
Mon 05:57:21 PM 29.1044 -97.5692 175° South 425 489 36,000  Level Houston Center
Mon 05:58:23 PM 28.9864 -97.5564 175° South 426 490 36,000  Level Houston Center
Mon 05:59:25 PM 28.8700 -97.5447 175° South 423 487 36,000  Level Houston Center
Mon 06:00:28 PM 28.7525 -97.5331 175° South 425 489 36,000  Level Houston Center
Mon 06:02:32 PM 28.4950 -97.5064 175° South 425 489 36,000  Level Houston Center
Mon 06:04:00 PM 28.3498 -97.4771 174° South  Level FlightAware
Mon 06:04:36 PM 28.2586 -97.4822 174° South 427 491 36,000  Level Houston Center
Mon 06:05:38 PM 28.1403 -97.4700 175° South 427 491 36,000 -1,543 Level Houston Center
Mon 06:07:00 PM 28.0059 -97.4429 175° South  Level FlightAware
Mon 06:09:47 PM 27.6561 -97.4758 187° South 415 478 28,000  Level Houston Center
Mon 06:11:00 PM 27.5345 -97.4824 183° South  Level FlightAware
Mon 06:11:51 PM 27.4319 -97.5044 183° South 403 464 27,800  Level Houston Center
Mon 06:13:00 PM 27.3171 -97.5129 184° South  Level FlightAware
Mon 06:13:55 PM 27.2031 -97.5347 184° South 380 437 20,700  Level Houston Center
Mon 06:14:00 PM 27.3108 -97.5123 185° South  Level FlightAware
Mon 06:14:28 PM 27.1403 -97.5417 186° South 382 440 18,400  Level Houston Center
Mon 06:14:57 PM 27.0886 -97.5478 186° South 397 457 17,100 -1,648 Descending Houston Center
Mon 06:15:00 PM 27.2113 -97.5241 187° South  Level FlightAware
Mon 06:15:59 PM 26.9886 -97.5622 187° South 327 376 15,900  Level Houston Center
Mon 06:16:41 PM 26.9328 -97.5675 185° South 284 327 14,300 -2,710 Descending Houston Center
Mon 06:17:01 PM 26.9072 -97.5744 194° South 294 338 13,100 -3,181 Descending Houston Center
Mon 06:18:04 PM 26.8103 -97.5939 190° South 327 376 9,900 -1,829 Descending Houston Center
Mon 06:20:08 PM 26.6542 -97.6147 187° South 275 316 7,400 -1,289 Descending Houston Center
Mon 06:20:33 PM 26.6206 -97.6192 187° South 266 306 6,700 -1,452 Descending Houston Center
Mon 06:21:10 PM 26.5756 -97.6256 187° South 266 306 5,900 -1,377 Descending Houston Center
Mon 06:21:34 PM 26.5478 -97.6289 186° South 261 300 5,300 -1,333 Descending Houston Center
Mon 06:22:40 PM 26.4708 -97.6369 185° South 252 290 3,900 -1,438 Descending Houston Center
Mon 06:23:35 PM 26.4067 -97.6456 187° South 250 288 2,400 -1,188 Descending Houston Center
Mon 06:24:16 PM 26.3625 -97.6506 186° South 236 272 2,000 -393 Descending Houston Center
Mon 06:24:36 PM 26.3444 -97.6539 189° South 230 265 2,000 -677 Level Houston Center
Mon 06:25:18 PM 26.3064 -97.6586 186° South 190 219 1,300 -828 Descending Houston Center
Mon 06:26:32 PM 26.2608 -97.6603 182° South 124 143 400 7,056 Descending Houston Center
Mon 06:27:23 PM 26.2358 -97.6589 177° South 133 153 16,000 18,353 Climbing Houston Center
Mon 06:29:00 PM 26.2271 -97.6551 190° South  Level Estimated

Login

Don't have an account? Register now (free) for customized features, flight alerts, and more!